createdAt,value
2019-02-05T00:00:37.478Z,11.13
2019-02-05T00:03:09.123Z,9.33
2019-02-05T00:05:42.257Z,9.57
2019-02-05T00:08:13.218Z,9.00
2019-02-05T00:10:46.194Z,9.00
2019-02-05T00:13:17.589Z,9.80
2019-02-05T00:15:50.833Z,10.23
2019-02-05T00:18:22.249Z,9.80
2019-02-05T00:20:55.428Z,10.40
2019-02-05T00:23:26.387Z,9.70
2019-02-05T00:26:06.186Z,10.40
2019-02-05T00:28:32.318Z,10.57
2019-02-05T00:31:05.437Z,11.57
2019-02-05T00:33:36.509Z,11.13
2019-02-05T00:36:09.834Z,10.00
2019-02-05T00:38:40.927Z,9.27
2019-02-05T00:41:13.990Z,9.10
2019-02-05T00:43:45.105Z,8.37
2019-02-05T00:46:18.114Z,9.80
2019-02-05T00:48:49.591Z,11.33
2019-02-05T00:51:22.815Z,9.97
2019-02-05T00:53:54.052Z,9.93
2019-02-05T00:56:27.230Z,8.90
2019-02-05T00:58:58.243Z,10.57
2019-02-05T01:01:31.647Z,9.00
2019-02-05T01:04:02.686Z,9.07
2019-02-05T01:06:36.748Z,9.77
2019-02-05T01:09:10.033Z,10.33
2019-02-05T01:11:43.065Z,10.03
2019-02-05T01:14:14.234Z,9.07
2019-02-05T01:16:47.229Z,9.17
2019-02-05T01:19:18.277Z,8.30
2019-02-05T01:21:51.823Z,9.23
2019-02-05T01:24:24.317Z,9.23
2019-02-05T01:26:57.341Z,9.30
2019-02-05T01:29:28.377Z,9.30
2019-02-05T01:32:01.590Z,8.20
2019-02-05T01:34:32.604Z,8.80
2019-02-05T01:37:05.851Z,7.37
2019-02-05T01:39:36.807Z,8.97
2019-02-05T01:42:10.114Z,9.03
2019-02-05T01:44:41.148Z,8.50
2019-02-05T01:47:14.428Z,7.90
2019-02-05T01:49:45.487Z,7.80
2019-02-05T01:52:18.547Z,7.97
2019-02-05T01:54:49.558Z,8.50
2019-02-05T01:57:22.735Z,9.07
2019-02-05T01:59:54.243Z,9.27
2019-02-05T02:02:27.283Z,9.00
2019-02-05T02:04:58.299Z,7.73
2019-02-05T02:07:31.650Z,8.80
2019-02-05T02:10:02.692Z,8.57
2019-02-05T02:12:36.129Z,8.50
2019-02-05T02:15:07.668Z,8.30
2019-02-05T02:17:40.645Z,7.93
2019-02-05T02:20:12.834Z,7.37
2019-02-05T02:22:46.049Z,9.23
2019-02-05T02:25:17.787Z,8.00
2019-02-05T02:27:51.385Z,8.87
2019-02-05T02:30:27.085Z,8.23
2019-02-05T02:33:00.214Z,8.63
2019-02-05T02:35:31.343Z,8.50
2019-02-05T02:38:04.388Z,8.70
2019-02-05T02:40:35.387Z,9.53
2019-02-05T02:43:08.386Z,9.20
2019-02-05T02:45:39.366Z,10.47
2019-02-05T02:48:12.488Z,10.07
2019-02-05T02:50:43.576Z,10.90
2019-02-05T02:53:16.565Z,11.50
2019-02-05T02:55:47.518Z,10.43
2019-02-05T02:58:20.551Z,10.70
2019-02-05T03:00:51.883Z,9.87
2019-02-05T03:03:25.162Z,10.30
2019-02-05T03:05:57.404Z,10.70
2019-02-05T03:08:30.509Z,12.20
2019-02-05T03:11:01.669Z,11.43
2019-02-05T03:13:34.725Z,12.67
2019-02-05T03:16:05.942Z,11.20
2019-02-05T03:18:39.024Z,11.90
2019-02-05T03:21:10.245Z,17.00
2019-02-05T03:23:43.333Z,16.57
2019-02-05T03:26:14.328Z,11.80
2019-02-05T03:28:47.509Z,10.47
2019-02-05T03:31:18.615Z,10.80
2019-02-05T03:33:51.781Z,11.53
2019-02-05T03:36:26.218Z,12.00
2019-02-05T03:38:59.289Z,11.77
2019-02-05T03:41:30.369Z,11.60
2019-02-05T03:44:03.666Z,11.57
2019-02-05T03:46:34.820Z,10.70
2019-02-05T03:49:08.123Z,13.10
2019-02-05T03:51:58.278Z,13.40
2019-02-05T03:54:51.292Z,14.23
2019-02-05T03:57:41.442Z,13.17
2019-02-05T04:00:28.970Z,13.23
2019-02-05T04:03:25.048Z,12.70
2019-02-05T04:06:21.118Z,12.77
2019-02-05T04:08:59.680Z,12.43
2019-02-05T04:11:42.411Z,12.60
2019-02-05T04:14:21.391Z,12.40
2019-02-05T04:17:17.532Z,11.20
2019-02-05T04:20:10.590Z,11.07
2019-02-05T04:23:01.228Z,12.43
2019-02-05T04:25:46.714Z,10.60
2019-02-05T04:28:37.220Z,12.03
2019-02-05T04:31:21.429Z,11.17
2019-02-05T04:34:16.210Z,10.60
2019-02-05T04:37:08.183Z,11.93
2019-02-05T04:39:54.363Z,12.33
2019-02-05T04:42:53.350Z,11.33
2019-02-05T04:45:58.907Z,11.60
2019-02-05T04:48:48.909Z,12.00
2019-02-05T04:51:43.840Z,11.87
2019-02-05T04:54:36.422Z,10.90
2019-02-05T04:57:34.568Z,10.60
2019-02-05T05:00:21.914Z,10.80
2019-02-05T05:03:07.401Z,11.63
2019-02-05T05:05:57.381Z,18.70
2019-02-05T05:08:50.671Z,8.00
2019-02-05T05:11:21.740Z,7.90
2019-02-05T05:13:55.147Z,6.27
2019-02-05T05:16:26.272Z,8.20
2019-02-05T05:18:59.815Z,7.13
2019-02-05T05:21:31.133Z,9.07
2019-02-05T05:24:04.781Z,9.03
2019-02-05T05:26:35.806Z,12.00
2019-02-05T05:29:08.864Z,12.37
2019-02-05T05:31:39.911Z,12.40
2019-02-05T05:34:12.944Z,15.40
2019-02-05T05:36:52.351Z,16.53
2019-02-05T05:39:25.462Z,15.13
2019-02-05T05:41:56.413Z,13.50
2019-02-05T05:44:29.556Z,15.17
2019-02-05T05:47:00.525Z,13.30
2019-02-05T05:49:33.557Z,14.50
2019-02-05T05:52:04.602Z,12.00
2019-02-05T05:54:37.845Z,10.90
2019-02-05T05:57:09.171Z,10.50
2019-02-05T05:59:42.338Z,9.43
2019-02-05T06:02:13.269Z,8.60
2019-02-05T06:04:46.289Z,8.07
2019-02-05T06:07:17.294Z,7.93
2019-02-05T06:09:50.392Z,6.97
2019-02-05T06:12:21.459Z,7.20
2019-02-05T06:14:54.856Z,7.30
2019-02-05T06:17:26.009Z,6.73
2019-02-05T06:19:59.295Z,6.00
2019-02-05T06:22:30.308Z,7.30
2019-02-05T06:25:03.383Z,7.90
2019-02-05T06:27:34.920Z,8.67
2019-02-05T06:30:08.871Z,8.23
2019-02-05T06:32:40.003Z,8.80
2019-02-05T06:35:13.121Z,9.80
2019-02-05T06:37:44.111Z,9.90
2019-02-05T06:40:18.733Z,7.00
2019-02-05T06:42:49.913Z,7.33
2019-02-05T06:45:23.163Z,8.33
2019-02-05T06:47:54.208Z,7.87
2019-02-05T06:50:27.280Z,6.90
2019-02-05T06:52:58.552Z,7.30
2019-02-05T06:55:31.715Z,7.10
2019-02-05T06:58:02.789Z,7.80
2019-02-05T07:00:35.960Z,9.30
2019-02-05T07:03:07.419Z,10.30
2019-02-05T07:05:40.862Z,8.93
2019-02-05T07:08:11.876Z,7.60
2019-02-05T07:10:45.015Z,8.13
2019-02-05T07:13:16.123Z,7.23
2019-02-05T07:15:49.224Z,9.30
2019-02-05T07:18:20.756Z,9.40
2019-02-05T07:20:53.945Z,8.00
2019-02-05T07:23:25.007Z,9.20
2019-02-05T07:26:02.392Z,26.57
2019-02-05T07:28:34.608Z,14.67
2019-02-05T07:31:07.994Z,8.90
2019-02-05T07:33:39.015Z,9.60
2019-02-05T07:36:13.140Z,8.47
2019-02-05T07:38:45.184Z,10.70
2019-02-05T07:41:18.250Z,8.43
2019-02-05T07:43:49.705Z,8.00
2019-02-05T07:46:22.831Z,8.73
2019-02-05T07:48:53.951Z,12.03
2019-02-05T07:51:27.083Z,11.73
2019-02-05T07:53:58.241Z,14.43
2019-02-05T07:56:31.344Z,16.20
2019-02-05T07:59:10.327Z,18.17
2019-02-05T08:01:42.835Z,18.70
2019-02-05T08:04:13.885Z,18.17
2019-02-05T08:06:49.651Z,16.47
2019-02-05T08:09:21.273Z,17.50
2019-02-05T08:11:54.473Z,17.07
2019-02-05T08:14:25.557Z,15.90
2019-02-05T08:16:58.802Z,14.57
2019-02-05T08:19:29.775Z,15.50
2019-02-05T08:22:03.971Z,14.53
2019-02-05T08:24:38.566Z,14.67
2019-02-05T08:27:11.643Z,15.10
2019-02-05T08:29:43.968Z,14.60
2019-02-05T08:32:16.065Z,15.77
2019-02-05T08:34:48.167Z,14.93
2019-02-05T08:37:21.794Z,16.13
2019-02-05T08:39:57.155Z,15.30
2019-02-05T08:42:30.190Z,15.87
2019-02-05T08:45:01.467Z,14.50
2019-02-05T08:47:34.824Z,16.37
2019-02-05T08:50:07.031Z,13.50
2019-02-05T08:52:41.220Z,11.73
2019-02-05T08:55:13.495Z,13.93
2019-02-05T08:57:46.704Z,15.17
2019-02-05T09:00:22.076Z,15.20
2019-02-05T09:02:55.732Z,16.23
2019-02-05T09:05:26.796Z,15.30
2019-02-05T09:07:59.952Z,16.93
2019-02-05T09:10:31.919Z,17.77
2019-02-05T09:13:05.467Z,18.00
2019-02-05T09:15:36.897Z,18.07
2019-02-05T09:18:10.341Z,20.20
2019-02-05T09:20:41.340Z,18.73
2019-02-05T09:23:14.557Z,17.77
2019-02-05T09:25:46.041Z,17.17
2019-02-05T09:28:20.612Z,20.10
2019-02-05T09:30:53.002Z,19.93
2019-02-05T09:33:25.282Z,20.27
2019-02-05T09:35:57.647Z,19.70
2019-02-05T09:38:31.154Z,19.10
2019-02-05T09:41:02.977Z,18.10
2019-02-05T09:43:36.107Z,17.90
2019-02-05T09:46:07.423Z,17.77
2019-02-05T09:48:40.656Z,18.00
2019-02-05T09:51:11.717Z,18.83
2019-02-05T09:53:45.316Z,19.30
2019-02-05T09:56:16.404Z,21.20
2019-02-05T09:58:49.405Z,19.13
2019-02-05T10:01:20.445Z,20.30
2019-02-05T10:03:53.608Z,19.90
2019-02-05T10:06:24.579Z,18.80
2019-02-05T10:08:57.848Z,19.60
2019-02-05T10:11:28.943Z,19.13
2019-02-05T10:14:02.009Z,21.70
2019-02-05T10:16:33.100Z,21.17
2019-02-05T10:19:06.137Z,18.23
2019-02-05T10:21:37.159Z,19.43
2019-02-05T10:24:10.516Z,20.90
2019-02-05T10:26:41.534Z,21.93
2019-02-05T10:29:14.655Z,21.43
2019-02-05T10:31:46.819Z,19.93
2019-02-05T10:34:18.932Z,20.63
2019-02-05T10:36:51.281Z,19.93
2019-02-05T10:39:24.486Z,21.07
2019-02-05T10:41:55.524Z,22.03
2019-02-05T10:44:28.621Z,20.10
2019-02-05T10:47:00.245Z,19.47
2019-02-05T10:49:33.328Z,21.53
2019-02-05T10:52:04.439Z,23.50
2019-02-05T10:54:37.738Z,22.27
2019-02-05T10:57:08.956Z,20.70
2019-02-05T10:59:42.216Z,21.07
2019-02-05T11:02:13.327Z,22.53
2019-02-05T11:04:49.422Z,22.37
2019-02-05T11:07:20.756Z,24.83
2019-02-05T11:09:53.812Z,20.40
2019-02-05T11:12:31.580Z,21.17
2019-02-05T11:15:04.922Z,20.77
2019-02-05T11:17:36.093Z,21.17
2019-02-05T11:20:11.456Z,21.33
2019-02-05T11:22:42.407Z,21.80
2019-02-05T11:25:15.661Z,21.50
2019-02-05T11:27:46.604Z,20.77
2019-02-05T11:30:20.863Z,21.83
2019-02-05T11:32:52.959Z,21.50
2019-02-05T11:35:26.458Z,21.27
2019-02-05T11:37:57.584Z,21.13
2019-02-05T11:40:32.920Z,21.67
2019-02-05T11:43:04.974Z,22.17
2019-02-05T11:45:38.220Z,22.40
2019-02-05T11:48:11.110Z,23.60
2019-02-05T11:50:44.340Z,22.60
2019-02-05T11:53:15.523Z,21.47
2019-02-05T11:55:48.686Z,21.03
2019-02-05T11:58:19.803Z,21.17
2019-02-05T12:01:04.110Z,19.37
2019-02-05T12:03:35.162Z,21.63
2019-02-05T12:06:08.272Z,25.27
2019-02-05T12:08:39.378Z,22.07
2019-02-05T12:11:12.453Z,21.47
2019-02-05T12:13:44.248Z,23.13
2019-02-05T12:16:17.843Z,19.80
2019-02-05T12:18:49.191Z,20.77
2019-02-05T12:21:22.370Z,21.00
2019-02-05T12:23:53.442Z,22.97
2019-02-05T12:26:26.450Z,21.70
2019-02-05T12:28:57.522Z,21.87
2019-02-05T12:31:31.842Z,22.30
2019-02-05T12:34:06.261Z,23.27
2019-02-05T12:36:39.427Z,24.80
2019-02-05T12:39:16.764Z,21.47
2019-02-05T12:41:49.977Z,19.80
2019-02-05T12:44:20.978Z,21.67
2019-02-05T12:46:54.178Z,23.90
2019-02-05T12:49:26.405Z,23.57
2019-02-05T12:51:59.818Z,24.50
2019-02-05T12:54:30.943Z,23.17
2019-02-05T12:57:03.992Z,22.10
2019-02-05T12:59:34.972Z,24.37
2019-02-05T13:02:08.219Z,21.10
2019-02-05T13:04:39.583Z,22.50
2019-02-05T13:07:13.071Z,23.20
2019-02-05T13:09:49.959Z,23.37
2019-02-05T13:12:23.345Z,22.60
2019-02-05T13:14:54.721Z,21.17
2019-02-05T13:17:27.948Z,21.37
2019-02-05T13:19:58.958Z,20.47
2019-02-05T13:22:32.104Z,21.83
2019-02-05T13:25:03.120Z,20.40
2019-02-05T13:27:36.688Z,20.10
2019-02-05T13:30:08.807Z,20.67
2019-02-05T13:32:42.044Z,22.63
2019-02-05T13:35:13.647Z,20.20
2019-02-05T13:37:46.783Z,22.43
2019-02-05T13:40:19.203Z,21.40
2019-02-05T13:42:52.399Z,22.57
2019-02-05T13:45:24.543Z,23.10
2019-02-05T13:47:57.920Z,23.90
2019-02-05T13:50:33.268Z,22.57
2019-02-05T13:53:04.935Z,22.20
2019-02-05T13:55:37.775Z,23.37
2019-02-05T13:58:11.300Z,24.07
2019-02-05T14:00:52.482Z,24.40
2019-02-05T14:03:25.788Z,23.07
2019-02-05T14:05:56.800Z,27.07
2019-02-05T14:08:29.909Z,26.13
2019-02-05T14:11:01.115Z,29.20
2019-02-05T14:13:34.662Z,30.30
2019-02-05T14:16:06.539Z,28.50
2019-02-05T14:18:39.826Z,30.03
2019-02-05T14:21:11.140Z,28.70
2019-02-05T14:23:45.389Z,29.90
2019-02-05T14:26:19.520Z,28.23
2019-02-05T14:28:52.531Z,29.33
2019-02-05T14:31:31.492Z,28.00
2019-02-05T14:33:58.740Z,27.50
2019-02-05T14:36:30.923Z,28.50
2019-02-05T14:39:02.924Z,27.97
2019-02-05T14:41:37.816Z,27.07
2019-02-05T14:44:10.924Z,27.20
2019-02-05T14:46:41.959Z,26.03
2019-02-05T14:49:15.435Z,28.53
2019-02-05T14:51:47.568Z,28.53
2019-02-05T14:54:20.650Z,25.30
2019-02-05T14:56:51.797Z,27.03
2019-02-05T14:59:24.857Z,26.93
2019-02-05T15:01:56.019Z,28.40
2019-02-05T15:04:29.156Z,27.20
2019-02-05T15:07:00.285Z,29.80
2019-02-05T15:09:33.534Z,25.80
2019-02-05T15:12:04.592Z,25.30
2019-02-05T15:14:37.799Z,26.70
2019-02-05T15:17:08.820Z,26.00
2019-02-05T15:19:42.007Z,29.20
2019-02-05T15:22:12.967Z,26.53
2019-02-05T15:24:46.406Z,26.00
2019-02-05T15:27:18.723Z,24.47
2019-02-05T15:29:51.741Z,26.90
2019-02-05T15:32:51.801Z,27.47
2019-02-05T15:35:24.138Z,25.60
2019-02-05T15:37:56.229Z,24.20
2019-02-05T15:40:30.566Z,28.07
2019-02-05T15:43:04.691Z,27.10
2019-02-05T15:45:37.720Z,26.07
2019-02-05T15:48:09.009Z,24.30
2019-02-05T15:50:42.246Z,26.13
2019-02-05T15:53:13.550Z,27.33
2019-02-05T15:55:47.221Z,29.03
2019-02-05T15:58:18.718Z,27.40
2019-02-05T16:00:54.869Z,29.80
2019-02-05T16:03:28.940Z,30.13
2019-02-05T16:06:02.320Z,30.00
2019-02-05T16:08:33.535Z,28.67
2019-02-05T16:11:07.341Z,28.40
2019-02-05T16:13:38.358Z,30.23
2019-02-05T16:16:11.737Z,31.60
2019-02-05T16:18:44.631Z,31.83
2019-02-05T16:21:17.947Z,30.80
2019-02-05T16:23:49.196Z,32.47
2019-02-05T16:26:22.342Z,32.30
2019-02-05T16:28:53.489Z,31.10
2019-02-05T16:31:28.005Z,30.30
2019-02-05T16:34:00.448Z,31.73
2019-02-05T16:36:32.571Z,35.63
2019-02-05T16:39:06.354Z,45.17
2019-02-05T16:41:41.593Z,32.63
2019-02-05T16:44:15.754Z,36.27
2019-02-05T16:46:48.853Z,35.60
2019-02-05T16:49:22.317Z,35.80
2019-02-05T16:51:54.893Z,33.13
2019-02-05T16:54:26.305Z,39.90
2019-02-05T16:56:59.391Z,35.67
2019-02-05T16:59:30.671Z,34.30
2019-02-05T17:02:03.883Z,32.70
2019-02-05T17:04:36.499Z,32.97
2019-02-05T17:07:09.781Z,45.33
2019-02-05T17:09:40.929Z,44.27
2019-02-05T17:12:14.023Z,41.83
2019-02-05T17:14:45.050Z,37.00
2019-02-05T17:17:20.784Z,39.77
2019-02-05T17:19:51.261Z,45.10
2019-02-05T17:22:24.647Z,49.50
2019-02-05T17:24:55.720Z,55.47
2019-02-05T17:27:28.955Z,46.27
2019-02-05T17:30:00.376Z,47.50
2019-02-05T17:32:40.313Z,44.80
2019-02-05T17:35:07.323Z,44.90
2019-02-05T17:37:41.173Z,49.30
2019-02-05T17:40:13.626Z,45.10
2019-02-05T17:42:48.377Z,43.07
2019-02-05T17:45:23.828Z,45.60
2019-02-05T17:47:58.498Z,40.27
2019-02-05T17:50:29.528Z,41.20
2019-02-05T17:53:03.350Z,42.67
2019-02-05T17:55:34.487Z,42.30
2019-02-05T17:58:07.828Z,39.73
2019-02-05T18:01:00.812Z,44.77
2019-02-05T18:03:34.146Z,43.37
2019-02-05T18:06:05.927Z,41.67
2019-02-05T18:08:39.092Z,49.73
2019-02-05T18:11:10.279Z,47.80
2019-02-05T18:13:43.635Z,52.07
2019-02-05T18:16:18.650Z,49.37
2019-02-05T18:18:51.824Z,46.30
2019-02-05T18:21:22.956Z,49.00
2019-02-05T18:23:56.152Z,47.90
2019-02-05T18:26:27.438Z,46.73
2019-02-05T18:29:00.688Z,54.40
2019-02-05T18:31:32.005Z,51.43
2019-02-05T18:34:05.368Z,58.20
2019-02-05T18:36:36.420Z,47.17
2019-02-05T18:39:10.622Z,51.30
2019-02-05T18:41:42.045Z,51.57
2019-02-05T18:44:15.302Z,59.93
2019-02-05T18:46:46.399Z,52.80
2019-02-05T18:49:20.772Z,51.10
2019-02-05T18:51:51.888Z,53.00
2019-02-05T18:54:25.238Z,58.77
2019-02-05T18:56:56.912Z,58.00
2019-02-05T18:59:30.030Z,55.43
2019-02-05T19:02:02.335Z,67.70
2019-02-05T19:04:35.460Z,68.33
2019-02-05T19:07:06.721Z,69.23
2019-02-05T19:09:39.808Z,53.90
2019-02-05T19:12:10.861Z,62.30
2019-02-05T19:14:44.542Z,56.20
2019-02-05T19:17:15.713Z,54.17
2019-02-05T19:19:48.831Z,50.40
2019-02-05T19:22:20.038Z,45.50
2019-02-05T19:25:02.165Z,48.20
2019-02-05T19:27:33.627Z,48.37
2019-02-05T19:30:07.682Z,54.00
2019-02-05T19:32:38.733Z,50.97
2019-02-05T19:35:11.986Z,48.67
2019-02-05T19:37:43.099Z,42.27
2019-02-05T19:40:16.301Z,45.37
2019-02-05T19:42:47.539Z,42.80
2019-02-05T19:45:42.857Z,47.73
2019-02-05T19:48:21.643Z,49.00
2019-02-05T19:50:55.435Z,46.27
2019-02-05T19:53:26.457Z,48.00
2019-02-05T19:56:00.182Z,43.37
2019-02-05T19:58:31.515Z,46.33
2019-02-05T20:01:04.760Z,42.87
2019-02-05T20:03:38.783Z,50.70
2019-02-05T20:06:10.735Z,46.30
2019-02-05T20:08:41.777Z,44.03
2019-02-05T20:11:15.065Z,40.93
2019-02-05T20:13:46.128Z,49.17
2019-02-05T20:16:19.309Z,47.80
2019-02-05T20:18:50.432Z,48.20
2019-02-05T20:21:23.580Z,42.03
2019-02-05T20:23:54.732Z,51.27
2019-02-05T20:26:28.121Z,46.33
2019-02-05T20:28:59.228Z,48.47
2019-02-05T20:31:32.444Z,49.40
2019-02-05T20:34:04.588Z,50.53
2019-02-05T20:36:36.642Z,53.10
2019-02-05T20:39:12.783Z,52.70
2019-02-05T20:41:45.015Z,43.87
2019-02-05T20:44:17.347Z,45.63
2019-02-05T20:46:49.367Z,46.20
2019-02-05T20:49:21.445Z,43.73
2019-02-05T20:51:53.977Z,42.40
2019-02-05T20:54:25.192Z,46.57
2019-02-05T20:56:58.589Z,38.50
2019-02-05T20:59:30.425Z,41.20
2019-02-05T21:02:04.588Z,41.10
2019-02-05T21:04:46.611Z,46.00
2019-02-05T21:07:10.638Z,47.27
2019-02-05T21:09:42.237Z,44.70
2019-02-05T21:12:15.571Z,44.00
2019-02-05T21:14:46.688Z,46.00
2019-02-05T21:17:20.062Z,38.50
2019-02-05T21:19:51.362Z,38.87
2019-02-05T21:22:24.518Z,40.53
2019-02-05T21:24:55.699Z,35.87
2019-02-05T21:27:28.861Z,33.57
2019-02-05T21:30:00.347Z,33.27
2019-02-05T21:32:34.377Z,36.00
2019-02-05T21:35:08.904Z,38.47
2019-02-05T21:37:42.137Z,33.20
2019-02-05T21:40:15.155Z,32.63
2019-02-05T21:42:48.367Z,30.37
2019-02-05T21:45:22.119Z,30.80
2019-02-05T21:47:55.516Z,33.13
2019-02-05T21:50:26.603Z,39.30
2019-02-05T21:53:00.188Z,39.73
2019-02-05T21:55:31.299Z,39.90
2019-02-05T21:58:04.809Z,39.17
2019-02-05T22:00:35.849Z,35.50
2019-02-05T22:03:09.516Z,38.00
2019-02-05T22:05:40.555Z,35.63
2019-02-05T22:08:13.937Z,38.43
2019-02-05T22:10:45.155Z,43.67
2019-02-05T22:13:18.386Z,40.10
2019-02-05T22:15:49.406Z,38.50
2019-02-05T22:18:22.800Z,44.47
2019-02-05T22:20:53.886Z,42.10
2019-02-05T22:23:27.405Z,45.67
2019-02-05T22:25:58.531Z,43.23
2019-02-05T22:28:33.304Z,38.10
2019-02-05T22:31:04.490Z,42.70
2019-02-05T22:33:37.955Z,45.57
2019-02-05T22:36:09.292Z,47.23
2019-02-05T22:38:42.334Z,43.63
2019-02-05T22:41:13.458Z,42.00
2019-02-05T22:43:46.575Z,40.10
2019-02-05T22:46:17.616Z,39.27
2019-02-05T22:48:50.807Z,41.70
2019-02-05T22:51:21.947Z,37.47
2019-02-05T22:53:55.176Z,37.97
2019-02-05T22:56:26.337Z,38.30
2019-02-05T22:58:59.813Z,41.13
2019-02-05T23:01:36.513Z,39.50
2019-02-05T23:04:12.535Z,42.20
2019-02-05T23:06:56.781Z,41.83
2019-02-05T23:09:48.762Z,37.87
2019-02-05T23:12:33.846Z,39.97
2019-02-05T23:15:28.805Z,41.23
2019-02-05T23:17:58.760Z,38.00
2019-02-05T23:20:33.473Z,37.37
2019-02-05T23:23:04.537Z,37.37
2019-02-05T23:25:37.609Z,36.97
2019-02-05T23:28:08.760Z,36.90
2019-02-05T23:30:42.009Z,41.67
2019-02-05T23:33:13.645Z,36.30
2019-02-05T23:35:47.694Z,38.67
2019-02-05T23:38:21.724Z,37.20
2019-02-05T23:40:54.775Z,36.17
2019-02-05T23:43:25.936Z,37.97
2019-02-05T23:46:01.753Z,39.17
2019-02-05T23:48:31.712Z,37.00
2019-02-05T23:51:05.016Z,39.30
2019-02-05T23:53:36.028Z,36.90
2019-02-05T23:56:09.017Z,35.17
2019-02-05T23:58:40.016Z,36.27
